createdAt,value
2022-11-26T00:01:58.873Z,100.00
2022-11-26T00:04:44.598Z,100.00
2022-11-26T00:07:32.559Z,100.00
2022-11-26T00:10:21.750Z,100.00
2022-11-26T00:13:16.056Z,100.00
2022-11-26T00:16:01.325Z,100.00
2022-11-26T00:18:46.739Z,100.00
2022-11-26T00:21:34.871Z,100.00
2022-11-26T00:24:27.910Z,100.00
2022-11-26T00:27:13.214Z,99.78
2022-11-26T00:30:02.242Z,99.76
2022-11-26T00:32:47.593Z,99.15
2022-11-26T00:35:33.805Z,99.31
2022-11-26T00:38:21.413Z,99.51
2022-11-26T00:41:15.334Z,99.19
2022-11-26T00:44:01.267Z,99.43
2022-11-26T00:46:46.967Z,99.83
2022-11-26T00:49:32.449Z,99.97
2022-11-26T00:52:29.749Z,99.92
2022-11-26T00:55:24.761Z,100.00
2022-11-26T00:58:28.316Z,100.00
2022-11-26T01:01:18.801Z,99.46
2022-11-26T01:04:04.031Z,99.14
2022-11-26T01:06:49.229Z,98.92
2022-11-26T01:09:34.645Z,98.82
2022-11-26T01:12:19.865Z,98.52
2022-11-26T01:15:05.765Z,99.25
2022-11-26T01:17:54.619Z,98.95
2022-11-26T01:20:40.297Z,98.89
2022-11-26T01:23:25.845Z,99.34
2022-11-26T01:26:20.374Z,99.32
2022-11-26T01:29:06.194Z,98.87
2022-11-26T01:31:51.470Z,98.55
2022-11-26T01:34:37.296Z,98.61
2022-11-26T01:37:22.519Z,98.16
2022-11-26T01:40:35.750Z,98.02
2022-11-26T01:43:33.221Z,98.26
2022-11-26T01:46:21.024Z,98.19
2022-11-26T01:49:24.258Z,98.40
2022-11-26T01:52:19.782Z,98.64
2022-11-26T01:55:05.069Z,98.88
2022-11-26T01:57:51.153Z,98.55
2022-11-26T02:00:36.743Z,98.52
2022-11-26T02:03:22.628Z,98.98
2022-11-26T02:06:14.649Z,98.87
2022-11-26T02:09:03.210Z,98.68
2022-11-26T02:11:48.653Z,98.48
2022-11-26T02:14:38.001Z,99.23
2022-11-26T02:17:35.607Z,99.22
2022-11-26T02:20:39.002Z,98.62
2022-11-26T02:23:59.402Z,98.73
2022-11-26T02:27:06.764Z,99.03
2022-11-26T02:30:05.836Z,99.45
2022-11-26T02:32:59.188Z,98.90
2022-11-26T02:35:52.949Z,98.81
2022-11-26T02:38:39.446Z,98.98
2022-11-26T02:41:24.472Z,99.05
2022-11-26T02:44:10.632Z,98.82
2022-11-26T02:47:02.639Z,99.10
2022-11-26T02:49:50.260Z,99.34
2022-11-26T02:52:36.595Z,98.92
2022-11-26T02:55:27.911Z,98.73
2022-11-26T02:58:13.949Z,98.87
2022-11-26T03:01:02.210Z,98.80
2022-11-26T03:03:50.908Z,98.91
2022-11-26T03:06:39.197Z,99.47
2022-11-26T03:09:24.478Z,100.00
2022-11-26T03:12:09.967Z,100.00
2022-11-26T03:14:55.296Z,100.00
2022-11-26T03:17:40.629Z,100.00
2022-11-26T03:20:25.845Z,99.96
2022-11-26T03:23:11.447Z,100.00
2022-11-26T03:25:56.848Z,100.00
2022-11-26T03:28:42.360Z,100.00
2022-11-26T03:31:27.787Z,99.82
2022-11-26T03:34:13.096Z,100.00
2022-11-26T03:36:58.711Z,100.00
2022-11-26T03:39:44.151Z,99.73
2022-11-26T03:42:29.412Z,99.85
2022-11-26T03:45:14.724Z,100.00
2022-11-26T03:47:59.978Z,100.00
2022-11-26T03:50:45.787Z,100.00
2022-11-26T03:53:31.707Z,100.00
2022-11-26T03:56:17.110Z,100.00
2022-11-26T03:59:02.137Z,100.00
2022-11-26T04:01:47.559Z,100.00
2022-11-26T04:04:32.930Z,100.00
2022-11-26T04:07:18.315Z,100.00
2022-11-26T04:10:04.494Z,100.00
2022-11-26T04:12:49.781Z,100.00
2022-11-26T04:15:35.138Z,100.00
2022-11-26T04:18:20.521Z,100.00
2022-11-26T04:21:07.803Z,100.00
2022-11-26T04:23:53.273Z,99.84
2022-11-26T04:26:38.468Z,99.37
2022-11-26T04:29:23.564Z,99.52
2022-11-26T04:32:09.023Z,99.72
2022-11-26T04:34:54.428Z,100.00
2022-11-26T04:37:39.915Z,99.79
2022-11-26T04:40:25.317Z,100.00
2022-11-26T04:43:10.489Z,100.00
2022-11-26T04:45:56.088Z,100.00
2022-11-26T04:48:41.341Z,100.00
2022-11-26T04:51:26.707Z,99.74
2022-11-26T04:54:13.269Z,99.01
2022-11-26T04:56:58.535Z,98.79
2022-11-26T04:59:44.129Z,99.03
2022-11-26T05:02:29.739Z,98.87
2022-11-26T05:05:15.211Z,98.90
2022-11-26T05:08:00.576Z,98.80
2022-11-26T05:10:45.993Z,98.98
2022-11-26T05:13:31.508Z,98.90
2022-11-26T05:16:16.627Z,98.70
2022-11-26T05:19:02.078Z,98.61
2022-11-26T05:21:47.267Z,98.92
2022-11-26T05:24:32.428Z,98.38
2022-11-26T05:27:17.456Z,98.05
2022-11-26T05:30:04.329Z,98.24
2022-11-26T05:32:49.797Z,98.17
2022-11-26T05:35:35.522Z,98.21
2022-11-26T05:38:20.946Z,98.24
2022-11-26T05:41:06.137Z,98.27
2022-11-26T05:43:51.521Z,98.53
2022-11-26T05:46:40.258Z,98.70
2022-11-26T05:49:25.400Z,99.16
2022-11-26T05:52:10.929Z,98.39
2022-11-26T05:54:56.207Z,98.15
2022-11-26T05:57:41.710Z,98.04
2022-11-26T06:00:27.440Z,98.04
2022-11-26T06:03:17.041Z,98.06
2022-11-26T06:06:05.551Z,98.02
2022-11-26T06:08:50.726Z,97.96
2022-11-26T06:11:35.853Z,98.62
2022-11-26T06:14:21.196Z,98.72
2022-11-26T06:17:06.395Z,98.65
2022-11-26T06:19:52.405Z,98.10
2022-11-26T06:22:41.923Z,98.29
2022-11-26T06:25:27.707Z,97.57
2022-11-26T06:28:13.058Z,97.26
2022-11-26T06:30:58.197Z,98.05
2022-11-26T06:33:43.514Z,98.77
2022-11-26T06:36:28.786Z,98.53
2022-11-26T06:39:14.195Z,98.15
2022-11-26T06:41:59.580Z,97.82
2022-11-26T06:44:46.302Z,97.94
2022-11-26T06:47:31.734Z,98.30
2022-11-26T06:50:19.043Z,97.77
2022-11-26T06:53:04.636Z,97.95
2022-11-26T06:55:50.181Z,97.91
2022-11-26T06:58:35.549Z,98.18
2022-11-26T07:01:26.286Z,97.63
2022-11-26T07:04:11.951Z,97.40
2022-11-26T07:06:57.096Z,97.38
2022-11-26T07:09:42.675Z,97.52
2022-11-26T07:12:27.880Z,97.61
2022-11-26T07:15:13.308Z,97.53
2022-11-26T07:17:59.181Z,97.26
2022-11-26T07:20:44.675Z,97.08
2022-11-26T07:23:30.121Z,96.73
2022-11-26T07:26:16.582Z,97.14
2022-11-26T07:29:02.162Z,97.26
2022-11-26T07:31:47.301Z,97.36
2022-11-26T07:34:32.610Z,97.51
2022-11-26T07:37:18.045Z,96.75
2022-11-26T07:40:05.019Z,96.59
2022-11-26T07:42:53.166Z,96.14
2022-11-26T07:45:42.734Z,95.87
2022-11-26T07:48:29.909Z,95.79
2022-11-26T07:51:21.239Z,95.49
2022-11-26T07:54:08.161Z,95.54
2022-11-26T07:56:53.617Z,95.24
2022-11-26T07:59:38.738Z,94.89
2022-11-26T08:02:24.280Z,94.81
2022-11-26T08:05:09.867Z,94.06
2022-11-26T08:07:55.210Z,93.79
2022-11-26T08:10:40.902Z,93.80
2022-11-26T08:13:26.052Z,93.46
2022-11-26T08:16:12.976Z,93.65
2022-11-26T08:19:00.715Z,93.47
2022-11-26T08:21:46.039Z,93.00
2022-11-26T08:24:31.529Z,93.19
2022-11-26T08:27:17.250Z,93.20
2022-11-26T08:30:02.505Z,92.73
2022-11-26T08:32:47.605Z,92.42
2022-11-26T08:36:04.923Z,92.38
2022-11-26T08:38:39.993Z,91.75
2022-11-26T08:41:26.097Z,92.29
2022-11-26T08:44:11.535Z,90.33
2022-11-26T08:46:56.929Z,91.04
2022-11-26T08:49:42.485Z,90.80
2022-11-26T08:52:27.781Z,90.84
2022-11-26T08:55:12.950Z,90.17
2022-11-26T08:57:58.281Z,89.20
2022-11-26T09:00:44.193Z,88.80
2022-11-26T09:03:32.121Z,89.64
2022-11-26T09:06:19.168Z,89.60
2022-11-26T09:09:15.205Z,89.35
2022-11-26T09:12:02.146Z,88.62
2022-11-26T09:14:47.548Z,88.46
2022-11-26T09:17:33.380Z,88.42
2022-11-26T09:20:19.160Z,88.70
2022-11-26T09:23:04.652Z,88.80
2022-11-26T09:25:50.613Z,87.40
2022-11-26T09:28:35.710Z,87.25
2022-11-26T09:31:21.361Z,85.49
2022-11-26T09:34:06.788Z,85.78
2022-11-26T09:36:52.044Z,86.22
2022-11-26T09:39:37.040Z,86.01
2022-11-26T09:42:43.651Z,86.49
2022-11-26T09:45:45.864Z,86.14
2022-11-26T09:48:33.666Z,87.04
2022-11-26T09:51:20.424Z,86.98
2022-11-26T09:54:06.512Z,86.62
2022-11-26T09:57:05.031Z,85.92
2022-11-26T09:59:51.928Z,85.51
2022-11-26T10:02:39.353Z,84.43
2022-11-26T10:05:46.035Z,85.00
2022-11-26T10:09:08.369Z,85.14
2022-11-26T10:12:25.787Z,86.21
2022-11-26T10:15:23.738Z,86.05
2022-11-26T10:18:35.664Z,86.30
2022-11-26T10:21:57.025Z,86.74
2022-11-26T10:24:41.999Z,87.04
2022-11-26T10:27:37.612Z,87.39
2022-11-26T10:30:28.348Z,88.18
2022-11-26T10:33:18.336Z,87.76
2022-11-26T10:36:08.985Z,88.25
2022-11-26T10:38:56.395Z,88.68
2022-11-26T10:41:42.577Z,88.54
2022-11-26T10:44:40.340Z,89.20
2022-11-26T10:47:28.358Z,89.63
2022-11-26T10:50:47.231Z,89.22
2022-11-26T10:54:00.492Z,88.03
2022-11-26T10:56:47.208Z,88.02
2022-11-26T10:59:40.498Z,87.24
2022-11-26T11:02:32.758Z,87.76
2022-11-26T11:05:20.273Z,86.53
2022-11-26T11:08:05.827Z,87.08
2022-11-26T11:10:56.289Z,86.50
2022-11-26T11:13:47.068Z,86.38
2022-11-26T11:16:41.580Z,86.24
2022-11-26T11:19:27.342Z,86.75
2022-11-26T11:22:22.184Z,86.74
2022-11-26T11:25:22.838Z,86.83
2022-11-26T11:28:20.373Z,87.25
2022-11-26T11:31:23.754Z,87.60
2022-11-26T11:34:19.761Z,88.33
2022-11-26T11:37:24.730Z,88.76
2022-11-26T11:40:20.146Z,88.71
2022-11-26T11:43:07.469Z,88.80
2022-11-26T11:46:01.905Z,88.82
2022-11-26T11:48:47.743Z,89.15
2022-11-26T11:51:58.807Z,89.05
2022-11-26T11:55:06.994Z,89.29
2022-11-26T11:58:11.133Z,89.06
2022-11-26T12:01:32.975Z,88.56
2022-11-26T12:04:47.451Z,88.09
2022-11-26T12:07:38.210Z,87.78
2022-11-26T12:10:52.582Z,87.25
2022-11-26T12:14:08.065Z,87.49
2022-11-26T12:17:03.736Z,87.97
2022-11-26T12:19:55.936Z,88.05
2022-11-26T12:22:49.332Z,87.78
2022-11-26T12:25:37.537Z,87.55
2022-11-26T12:28:28.598Z,87.79
2022-11-26T12:31:23.668Z,87.71
2022-11-26T12:34:30.575Z,87.66
2022-11-26T12:37:32.145Z,88.07
2022-11-26T12:40:36.707Z,87.78
2022-11-26T12:43:52.524Z,86.63
2022-11-26T12:47:12.065Z,87.11
2022-11-26T12:50:03.565Z,86.36
2022-11-26T12:53:12.182Z,85.85
2022-11-26T12:56:06.655Z,85.80
2022-11-26T12:59:19.896Z,86.18
2022-11-26T13:02:34.435Z,86.28
2022-11-26T13:05:34.805Z,86.01
2022-11-26T13:08:30.826Z,85.21
2022-11-26T13:11:29.475Z,85.47
2022-11-26T13:14:48.680Z,85.69
2022-11-26T13:17:45.709Z,86.18
2022-11-26T13:20:46.863Z,86.86
2022-11-26T13:23:43.032Z,87.04
2022-11-26T13:26:37.214Z,86.55
2022-11-26T13:29:54.121Z,86.45
2022-11-26T13:33:09.396Z,87.11
2022-11-26T13:36:07.213Z,87.20
2022-11-26T13:39:01.742Z,86.88
2022-11-26T13:42:06.672Z,86.85
2022-11-26T13:45:31.449Z,86.85
2022-11-26T13:48:27.958Z,86.68
2022-11-26T13:51:28.300Z,86.92
2022-11-26T13:54:25.405Z,86.80
2022-11-26T13:57:15.164Z,86.58
2022-11-26T14:00:00.753Z,85.66
2022-11-26T14:02:47.462Z,84.91
2022-11-26T14:05:51.573Z,84.65
2022-11-26T14:08:43.892Z,84.44
2022-11-26T14:11:41.730Z,83.96
2022-11-26T14:14:26.828Z,84.36
2022-11-26T14:17:16.935Z,84.83
2022-11-26T14:20:03.576Z,85.16
2022-11-26T14:22:49.075Z,85.39
2022-11-26T14:25:38.666Z,85.69
2022-11-26T14:28:24.039Z,85.76
